Time;durP1;ratioP1;P1;durP2;ratioP2;P2;SDS_P1;SDS_P2;PMS_P1;PMS_P2;Temp;Humidity;BMP_temperature;BMP_pressure;BME280_temperature;BME280_humidity;BME280_pressure;Samples;Min_cycle;Max_cycle;Signal;HPM_P1;HPM_P2
2021/12/09 00:00:43;;;;;;;25.73;19.88;;;4.10;99.90;;;;;;5059041;28;20281;-76
2021/12/09 00:03:10;;;;;;;24.60;18.40;;;4.20;99.90;;;;;;5058885;28;20211;-75
2021/12/09 00:05:38;;;;;;;34.63;20.77;;;4.20;99.90;;;;;;5048525;28;20652;-76
2021/12/09 00:08:06;;;;;;;30.13;19.27;;;4.10;99.90;;;;;;5052742;28;20199;-75
2021/12/09 00:10:34;;;;;;;31.00;20.05;;;4.10;99.90;;;;;;5052770;28;20314;-76
2021/12/09 00:13:05;;;;;;;30.67;20.10;;;4.10;99.90;;;;;;5051997;28;20203;-76
2021/12/09 00:15:33;;;;;;;29.75;19.58;;;4.10;99.90;;;;;;5052408;28;20231;-76
2021/12/09 00:18:00;;;;;;;34.83;20.08;;;4.10;99.90;;;;;;5048947;28;20234;-76
2021/12/09 00:20:27;;;;;;;28.38;19.90;;;4.20;99.90;;;;;;5050237;28;20331;-75
2021/12/09 00:22:53;;;;;;;36.13;21.85;;;4.20;99.90;;;;;;5052686;28;20230;-76
2021/12/09 00:25:20;;;;;;;34.35;22.60;;;4.20;99.90;;;;;;5051136;28;20214;-76
2021/12/09 00:27:47;;;;;;;34.25;21.05;;;4.10;99.90;;;;;;5045127;28;20199;-75
2021/12/09 00:30:18;;;;;;;31.35;19.45;;;4.10;99.90;;;;;;5043680;28;20220;-77
2021/12/09 00:32:44;;;;;;;30.40;20.13;;;4.10;99.90;;;;;;5056875;28;20557;-76
2021/12/09 00:35:15;;;;;;;31.75;20.98;;;4.00;99.90;;;;;;5051998;28;20223;-75
2021/12/09 00:37:53;;;;;;;29.88;20.45;;;4.10;99.90;;;;;;5048822;28;20603;-76
2021/12/09 00:40:20;;;;;;;31.77;20.92;;;4.00;99.90;;;;;;5054445;28;20322;-76
2021/12/09 00:42:47;;;;;;;30.17;20.42;;;4.00;99.90;;;;;;5057594;28;20192;-75
2021/12/09 00:45:14;;;;;;;34.40;21.73;;;4.00;99.90;;;;;;5054068;28;20290;-77
2021/12/09 00:47:42;;;;;;;35.78;22.40;;;3.90;99.90;;;;;;5043799;28;20291;-75
2021/12/09 00:50:10;;;;;;;34.03;22.48;;;4.00;99.90;;;;;;5047158;28;20259;-76
2021/12/09 00:52:38;;;;;;;37.17;22.83;;;3.90;99.90;;;;;;5067624;28;20664;-74
2021/12/09 00:55:06;;;;;;;30.23;22.30;;;3.90;99.90;;;;;;5060626;28;20641;-76
2021/12/09 00:57:34;;;;;;;33.30;21.33;;;3.90;99.90;;;;;;5060232;28;20213;-76
2021/12/09 01:00:01;;;;;;;33.40;20.63;;;3.90;99.90;;;;;;5055306;28;20231;-76
2021/12/09 01:02:28;;;;;;;35.83;22.25;;;3.90;99.90;;;;;;5048671;28;20207;-76
2021/12/09 01:04:56;;;;;;;29.48;21.02;;;3.80;99.90;;;;;;5052124;28;20219;-75
2021/12/09 01:07:23;;;;;;;33.97;22.45;;;3.90;99.90;;;;;;5055552;28;20222;-76
2021/12/09 01:09:50;;;;;;;33.45;22.45;;;3.90;99.90;;;;;;5052832;28;20202;-76
2021/12/09 01:12:17;;;;;;;34.60;21.45;;;3.90;99.90;;;;;;5055814;28;20291;-76
2021/12/09 01:14:44;;;;;;;31.75;23.00;;;4.00;99.90;;;;;;5055388;28;20603;-75
2021/12/09 01:17:12;;;;;;;34.00;23.38;;;4.00;99.90;;;;;;5057107;28;20323;-77
2021/12/09 01:19:40;;;;;;;32.35;21.90;;;3.90;99.90;;;;;;5047727;28;20213;-75
2021/12/09 01:22:09;;;;;;;36.55;25.77;;;3.90;99.90;;;;;;5049973;28;20753;-75
2021/12/09 01:24:36;;;;;;;35.17;22.85;;;3.90;99.90;;;;;;5051460;28;20239;-76
2021/12/09 01:27:04;;;;;;;33.78;23.05;;;3.90;99.90;;;;;;5056116;28;20259;-77
2021/12/09 01:29:35;;;;;;;39.72;24.75;;;3.90;99.90;;;;;;5049850;28;20573;-76
2021/12/09 01:32:05;;;;;;;40.33;22.40;;;3.90;99.90;;;;;;5061154;28;20201;-75
2021/12/09 01:34:35;;;;;;;36.10;24.60;;;3.90;99.90;;;;;;5056712;28;20203;-76
2021/12/09 01:37:02;;;;;;;37.00;20.55;;;3.80;99.90;;;;;;5052509;28;20244;-74
2021/12/09 01:39:31;;;;;;;45.47;26.95;;;3.90;99.90;;;;;;5054071;28;20297;-75
2021/12/09 01:41:59;;;;;;;39.83;23.08;;;3.90;99.90;;;;;;5050592;28;20204;-75
2021/12/09 01:44:32;;;;;;;36.90;23.45;;;3.90;99.90;;;;;;5053659;28;20213;-75
2021/12/09 01:46:59;;;;;;;32.75;22.70;;;3.90;99.90;;;;;;5055831;28;20234;-76
2021/12/09 01:49:32;;;;;;;38.28;24.08;;;3.80;99.90;;;;;;5055593;28;20677;-75
2021/12/09 01:51:59;;;;;;;35.33;23.40;;;3.80;99.90;;;;;;5053424;28;20279;-75
2021/12/09 01:54:26;;;;;;;39.38;24.40;;;3.80;99.90;;;;;;5050111;28;20782;-75
2021/12/09 01:56:54;;;;;;;32.85;22.50;;;3.80;99.90;;;;;;5063319;28;20214;-76
2021/12/09 01:59:24;;;;;;;44.22;25.23;;;3.80;99.90;;;;;;5057459;28;20207;-75
2021/12/09 02:01:51;;;;;;;47.42;23.10;;;3.80;99.90;;;;;;5057050;28;20659;-76
2021/12/09 02:04:18;;;;;;;39.25;25.73;;;3.80;99.90;;;;;;5055485;28;20214;-76
2021/12/09 02:06:45;;;;;;;42.85;26.60;;;3.70;99.90;;;;;;5051312;28;20247;-76
2021/12/09 02:09:15;;;;;;;37.55;25.25;;;3.80;99.90;;;;;;5059146;28;20958;-76
2021/12/09 02:11:42;;;;;;;35.83;25.08;;;3.80;99.90;;;;;;5047424;28;20302;-75
2021/12/09 02:14:11;;;;;;;40.72;26.33;;;3.70;99.90;;;;;;5055706;28;20203;-76
2021/12/09 02:16:39;;;;;;;45.17;26.20;;;3.70;99.90;;;;;;5055557;28;20298;-76
2021/12/09 02:19:07;;;;;;;43.33;26.48;;;3.80;99.90;;;;;;5052090;28;20659;-76
2021/12/09 02:21:36;;;;;;;40.25;26.33;;;3.70;99.90;;;;;;5047484;28;20288;-77
2021/12/09 02:24:07;;;;;;;42.05;25.40;;;3.70;99.90;;;;;;5049790;28;20810;-74
2021/12/09 02:26:36;;;;;;;42.92;27.02;;;3.70;99.90;;;;;;5048690;28;20226;-75
2021/12/09 02:29:06;;;;;;;34.28;23.80;;;3.80;99.90;;;;;;5056377;28;20207;-76
2021/12/09 02:31:34;;;;;;;35.63;23.30;;;3.80;99.90;;;;;;5050810;28;20594;-76
2021/12/09 02:34:02;;;;;;;36.25;23.33;;;3.80;99.90;;;;;;5052256;28;20287;-76
2021/12/09 02:36:31;;;;;;;36.78;25.08;;;3.80;99.90;;;;;;5053195;28;20617;-75
2021/12/09 02:38:59;;;;;;;33.60;24.90;;;3.80;99.90;;;;;;5053719;28;20200;-75
2021/12/09 02:41:27;;;;;;;38.20;25.45;;;3.70;99.90;;;;;;5053357;28;20635;-76
2021/12/09 02:43:57;;;;;;;40.90;26.88;;;3.70;99.90;;;;;;5053090;28;20246;-75
2021/12/09 02:46:26;;;;;;;41.58;25.48;;;3.70;99.90;;;;;;5061970;28;20228;-75
2021/12/09 02:48:53;;;;;;;45.40;27.40;;;3.70;99.90;;;;;;5053066;28;20238;-76
2021/12/09 02:51:20;;;;;;;44.35;25.65;;;3.60;99.90;;;;;;5044611;28;20231;-76
2021/12/09 02:53:47;;;;;;;38.90;27.35;;;3.70;99.90;;;;;;5051727;28;20214;-75
2021/12/09 02:56:15;;;;;;;49.78;27.42;;;3.60;99.90;;;;;;5044609;28;20605;-76
2021/12/09 02:58:43;;;;;;;38.67;26.38;;;3.70;99.90;;;;;;5053735;28;20282;-77
2021/12/09 03:01:16;;;;;;;40.28;25.13;;;3.60;99.90;;;;;;5051681;28;20310;-74
2021/12/09 03:03:50;;;;;;;45.83;27.30;;;3.60;99.90;;;;;;5038864;28;20215;-76
2021/12/09 03:06:18;;;;;;;45.90;27.85;;;3.60;99.90;;;;;;5028708;28;20749;-76
2021/12/09 03:08:46;;;;;;;41.92;27.05;;;3.50;99.90;;;;;;5055860;28;20206;-75
2021/12/09 03:11:16;;;;;;;47.60;28.13;;;3.40;99.90;;;;;;5055356;28;20282;-76
2021/12/09 03:13:45;;;;;;;42.97;26.00;;;3.50;99.90;;;;;;5049026;28;20294;-75
2021/12/09 03:16:12;;;;;;;43.72;28.00;;;3.50;99.90;;;;;;5052651;28;20235;-76
2021/12/09 03:18:44;;;;;;;45.95;28.08;;;3.40;99.90;;;;;;5053757;28;20206;-76
2021/12/09 03:21:15;;;;;;;43.20;27.83;;;3.50;99.90;;;;;;5050530;28;20579;-76
2021/12/09 03:23:42;;;;;;;48.22;26.58;;;3.60;99.90;;;;;;5050062;28;20202;-76
2021/12/09 03:26:10;;;;;;;45.03;28.67;;;3.60;99.90;;;;;;5052310;28;20210;-76
2021/12/09 03:28:39;;;;;;;45.92;29.40;;;3.50;99.90;;;;;;5053447;28;20204;-76
2021/12/09 03:31:06;;;;;;;41.60;26.63;;;3.50;99.90;;;;;;5056092;28;20644;-75
2021/12/09 03:33:33;;;;;;;43.63;28.85;;;3.50;99.90;;;;;;5065113;28;20218;-75
2021/12/09 03:36:02;;;;;;;44.17;27.15;;;3.50;99.90;;;;;;5058893;28;20204;-74
2021/12/09 03:38:29;;;;;;;48.00;29.15;;;3.40;99.90;;;;;;5055797;28;20202;-76
2021/12/09 03:40:57;;;;;;;36.60;24.63;;;3.30;99.90;;;;;;5065139;28;20230;-74
2021/12/09 03:43:25;;;;;;;48.95;29.05;;;3.30;99.90;;;;;;5064266;28;20202;-76
2021/12/09 03:45:55;;;;;;;46.38;28.08;;;3.30;99.90;;;;;;5067795;28;20295;-77
2021/12/09 03:48:23;;;;;;;49.53;30.25;;;3.30;99.90;;;;;;5061457;28;20231;-75
2021/12/09 03:50:50;;;;;;;47.20;28.38;;;3.30;99.90;;;;;;5064364;28;20309;-75
2021/12/09 03:53:18;;;;;;;44.20;30.17;;;3.30;99.90;;;;;;5056451;28;20235;-77
2021/12/09 03:55:46;;;;;;;51.85;29.05;;;3.30;99.90;;;;;;5053870;28;20227;-77
2021/12/09 03:58:13;;;;;;;46.55;29.05;;;3.30;99.90;;;;;;5054048;28;20195;-75
2021/12/09 04:00:41;;;;;;;58.63;31.63;;;3.30;99.90;;;;;;5055224;28;20305;-76
2021/12/09 04:03:11;;;;;;;48.08;28.67;;;3.20;99.90;;;;;;5052776;28;20219;-76
2021/12/09 04:05:38;;;;;;;49.70;32.50;;;3.20;99.90;;;;;;5055329;28;20210;-76
2021/12/09 04:08:07;;;;;;;57.55;31.80;;;3.20;99.90;;;;;;5054002;28;20638;-77
2021/12/09 04:10:35;;;;;;;49.10;29.80;;;3.30;99.90;;;;;;5052084;28;21654;-76
2021/12/09 04:13:02;;;;;;;50.65;27.85;;;3.30;99.90;;;;;;5053407;28;20640;-75
2021/12/09 04:15:29;;;;;;;50.63;32.92;;;3.30;99.90;;;;;;5053541;28;20235;-76
2021/12/09 04:17:56;;;;;;;43.20;27.80;;;3.40;99.90;;;;;;5053629;28;20309;-76
2021/12/09 04:20:25;;;;;;;60.60;31.38;;;3.30;99.90;;;;;;5052291;28;20270;-77
2021/12/09 04:22:53;;;;;;;54.25;34.80;;;3.30;99.90;;;;;;5053830;28;20203;-76
2021/12/09 04:25:22;;;;;;;43.20;30.00;;;3.30;99.90;;;;;;5053579;28;20326;-76
2021/12/09 04:27:50;;;;;;;51.05;32.40;;;3.30;99.90;;;;;;5055433;28;20231;-76
2021/12/09 04:30:19;;;;;;;47.30;31.02;;;3.30;99.90;;;;;;5052986;28;20639;-77
2021/12/09 04:32:46;;;;;;;50.47;30.55;;;3.30;99.90;;;;;;5053726;28;20282;-76
2021/12/09 04:35:13;;;;;;;43.20;28.88;;;3.30;99.90;;;;;;5053134;28;20203;-76
2021/12/09 04:37:42;;;;;;;54.22;32.35;;;3.30;99.90;;;;;;5053028;28;20273;-77
2021/12/09 04:40:11;;;;;;;49.28;30.92;;;3.30;99.90;;;;;;5052350;28;20314;-77
2021/12/09 04:42:39;;;;;;;47.00;29.67;;;3.30;99.90;;;;;;5053012;28;20207;-75
2021/12/09 04:45:53;;;;;;;59.75;33.50;;;3.30;99.90;;;;;;5047273;28;20239;-76
2021/12/09 04:48:20;;;;;;;56.20;32.35;;;3.30;99.90;;;;;;5050450;28;20656;-76
2021/12/09 04:50:47;;;;;;;56.45;33.25;;;3.30;99.90;;;;;;5057883;28;20218;-76
2021/12/09 04:53:16;;;;;;;53.88;32.60;;;3.30;99.90;;;;;;5056702;28;20234;-75
2021/12/09 04:55:43;;;;;;;61.65;36.17;;;3.40;99.90;;;;;;5053216;28;20271;-75
2021/12/09 04:58:11;;;;;;;55.58;33.58;;;3.40;99.90;;;;;;5053755;28;20196;-75
2021/12/09 05:00:38;;;;;;;64.18;35.47;;;3.40;99.90;;;;;;5053422;28;20234;-75
2021/12/09 05:03:09;;;;;;;63.78;34.58;;;3.40;99.90;;;;;;5053066;28;20225;-76
2021/12/09 05:05:41;;;;;;;53.53;33.05;;;3.40;99.90;;;;;;5053747;28;20235;-77
2021/12/09 05:08:09;;;;;;;66.55;35.30;;;3.30;99.90;;;;;;5052437;28;20234;-75
2021/12/09 05:10:52;;;;;;;63.55;35.75;;;3.30;99.90;;;;;;5051933;28;20831;-75
2021/12/09 05:13:20;;;;;;;68.38;36.20;;;3.30;99.90;;;;;;5052676;28;20203;-75
2021/12/09 05:15:47;;;;;;;72.78;36.42;;;3.40;99.90;;;;;;5055449;28;20310;-75
2021/12/09 05:18:16;;;;;;;61.35;35.38;;;3.40;99.90;;;;;;5056310;28;20726;-77
2021/12/09 05:20:44;;;;;;;76.47;38.15;;;3.30;99.90;;;;;;5056219;28;20277;-76
2021/12/09 05:23:11;;;;;;;69.50;38.10;;;3.30;99.90;;;;;;5056841;28;20206;-76
2021/12/09 05:25:46;;;;;;;66.47;37.63;;;3.30;99.90;;;;;;5056483;28;20207;-75
2021/12/09 05:28:15;;;;;;;65.43;35.55;;;3.30;99.90;;;;;;5056239;28;20269;-75
2021/12/09 05:33:28;;;;;;;70.93;36.15;;;3.40;99.90;;;;;;5054758;28;20199;-75
2021/12/09 05:35:56;;;;;;;62.38;36.28;;;3.30;99.90;;;;;;5056207;28;20226;-77
2021/12/09 05:38:25;;;;;;;70.40;38.42;;;3.40;99.90;;;;;;5056394;28;20283;-78
2021/12/09 05:40:54;;;;;;;79.45;38.95;;;3.40;99.90;;;;;;5057253;28;20224;-77
2021/12/09 05:43:22;;;;;;;78.88;38.63;;;3.40;99.90;;;;;;5059113;28;20200;-74
2021/12/09 05:45:50;;;;;;;75.70;35.78;;;3.30;99.90;;;;;;5062833;28;20250;-75
2021/12/09 05:48:17;;;;;;;79.18;38.08;;;3.30;99.90;;;;;;5056446;28;20712;-76
2021/12/09 05:50:44;;;;;;;81.38;41.70;;;3.40;99.90;;;;;;5059611;28;20673;-74
2021/12/09 05:53:11;;;;;;;90.28;40.97;;;3.40;99.90;;;;;;5060134;28;20234;-76
2021/12/09 05:55:43;;;;;;;77.00;38.25;;;3.30;99.90;;;;;;5055878;28;20228;-75
2021/12/09 05:58:13;;;;;;;86.15;40.33;;;3.30;99.90;;;;;;5051738;28;20577;-75
2021/12/09 06:00:40;;;;;;;95.35;40.45;;;3.40;99.90;;;;;;5049107;28;20257;-74
2021/12/09 06:03:07;;;;;;;91.80;41.70;;;3.50;99.90;;;;;;5055575;28;20219;-76
2021/12/09 06:05:35;;;;;;;104.82;40.30;;;3.40;99.90;;;;;;5055540;28;20239;-75
2021/12/09 06:08:04;;;;;;;92.00;40.50;;;3.30;99.90;;;;;;5055317;28;20265;-76
2021/12/09 06:10:31;;;;;;;87.60;45.97;;;3.40;99.90;;;;;;5053884;28;20228;-76
2021/12/09 06:12:59;;;;;;;91.40;40.08;;;3.40;99.90;;;;;;5055568;28;20208;-75
2021/12/09 06:15:28;;;;;;;107.85;43.78;;;3.40;99.90;;;;;;5054752;28;20218;-74
2021/12/09 06:17:55;;;;;;;100.70;42.03;;;3.40;99.90;;;;;;5055434;28;20227;-74
2021/12/09 06:20:22;;;;;;;79.70;37.92;;;3.40;99.90;;;;;;5054845;28;20301;-75
2021/12/09 06:22:49;;;;;;;70.93;37.78;;;3.50;99.90;;;;;;5061959;28;20290;-75
2021/12/09 06:25:19;;;;;;;92.15;40.78;;;3.40;99.90;;;;;;5045864;28;20231;-75
2021/12/09 06:27:48;;;;;;;98.20;41.38;;;3.40;99.90;;;;;;5053039;28;20211;-76
2021/12/09 06:30:16;;;;;;;90.97;42.30;;;3.50;99.90;;;;;;5053931;28;20251;-75
2021/12/09 06:32:44;;;;;;;104.47;46.90;;;3.40;99.90;;;;;;5045624;28;20723;-76
2021/12/09 06:35:12;;;;;;;71.72;38.72;;;3.40;99.90;;;;;;5041182;28;20282;-74
2021/12/09 06:37:43;;;;;;;92.72;41.67;;;3.50;99.90;;;;;;5047190;28;20196;-76
2021/12/09 06:40:13;;;;;;;86.03;41.80;;;3.40;99.90;;;;;;5049320;28;20734;-73
2021/12/09 06:42:40;;;;;;;104.40;41.75;;;3.40;99.90;;;;;;5046788;28;20271;-74
2021/12/09 06:45:09;;;;;;;85.50;42.90;;;3.40;99.90;;;;;;5054563;28;20246;-75
2021/12/09 06:47:36;;;;;;;91.28;42.25;;;3.30;99.90;;;;;;5055518;28;20719;-74
2021/12/09 06:50:08;;;;;;;105.30;40.28;;;3.30;99.90;;;;;;5053044;28;20766;-73
2021/12/09 06:52:35;;;;;;;99.07;44.00;;;3.30;99.90;;;;;;5053952;28;20227;-74
2021/12/09 06:55:02;;;;;;;95.50;41.50;;;3.20;99.90;;;;;;5047907;28;20672;-72
2021/12/09 06:57:30;;;;;;;94.63;39.63;;;3.20;99.90;;;;;;5053276;28;20726;-75
2021/12/09 06:59:57;;;;;;;104.47;44.83;;;3.20;99.90;;;;;;5053552;28;20231;-74
2021/12/09 07:02:23;;;;;;;106.10;46.17;;;3.20;99.90;;;;;;5053452;28;20338;-73
2021/12/09 07:04:51;;;;;;;95.32;44.45;;;3.20;99.90;;;;;;5051896;28;20257;-76
2021/12/09 07:07:19;;;;;;;112.97;41.80;;;3.20;99.90;;;;;;5044749;28;20192;-73
2021/12/09 07:09:46;;;;;;;107.03;43.50;;;3.10;99.90;;;;;;5045041;28;20287;-78
2021/12/09 07:12:13;;;;;;;98.65;41.90;;;3.10;99.90;;;;;;5054313;28;20282;-76
2021/12/09 07:14:53;;;;;;;104.18;43.10;;;3.10;99.90;;;;;;5053429;28;20196;-76
2021/12/09 07:17:21;;;;;;;95.13;41.67;;;3.10;99.90;;;;;;5044110;28;20200;-75
2021/12/09 07:19:49;;;;;;;114.47;45.53;;;3.10;99.90;;;;;;5054370;28;20219;-73
2021/12/09 07:22:16;;;;;;;88.63;40.40;;;3.10;99.90;;;;;;5054315;28;20272;-75
2021/12/09 07:24:45;;;;;;;105.10;40.92;;;3.20;99.90;;;;;;5054132;28;20207;-73
2021/12/09 07:29:51;;;;;;;93.50;44.03;;;3.20;99.90;;;;;;4356946;26;20226;-76
2021/12/09 07:32:18;;;;;;;98.63;44.10;;;3.20;99.90;;;;;;5047213;28;20687;-73
2021/12/09 07:34:46;;;;;;;106.60;43.25;;;3.30;99.90;;;;;;5052781;28;20244;-77
2021/12/09 07:37:13;;;;;;;103.70;45.67;;;3.20;99.90;;;;;;5044468;28;20242;-75
2021/12/09 07:39:40;;;;;;;99.28;41.90;;;3.30;99.90;;;;;;5046517;28;20199;-76
2021/12/09 07:42:11;;;;;;;103.90;44.88;;;3.20;99.90;;;;;;5051987;28;20283;-78
2021/12/09 07:44:38;;;;;;;95.55;39.95;;;3.30;99.90;;;;;;5068654;28;20242;-74
2021/12/09 07:47:05;;;;;;;90.65;41.45;;;3.30;99.90;;;;;;5053257;28;20199;-75
2021/12/09 07:49:32;;;;;;;108.45;42.25;;;3.30;99.90;;;;;;5063640;28;20562;-74
2021/12/09 07:51:59;;;;;;;93.72;42.75;;;3.30;99.90;;;;;;5050307;28;20211;-76
2021/12/09 07:54:28;;;;;;;89.13;40.05;;;3.30;99.90;;;;;;5056713;28;20199;-74
2021/12/09 07:56:55;;;;;;;96.15;42.58;;;3.30;99.90;;;;;;5058182;28;20231;-73
2021/12/09 07:59:24;;;;;;;95.60;44.47;;;3.40;99.90;;;;;;5054330;28;20199;-74
2021/12/09 08:01:52;;;;;;;94.50;41.53;;;3.40;99.90;;;;;;5053232;28;20304;-77
2021/12/09 08:04:19;;;;;;;91.25;47.72;;;3.30;99.90;;;;;;5048695;28;20530;-77
2021/12/09 08:06:45;;;;;;;99.78;44.47;;;3.40;99.90;;;;;;5058285;28;20278;-75
2021/12/09 08:09:14;;;;;;;100.15;42.95;;;3.50;99.90;;;;;;5049060;28;20389;-75
2021/12/09 08:11:42;;;;;;;97.85;42.75;;;3.60;99.90;;;;;;5047072;28;20219;-74
2021/12/09 08:14:11;;;;;;;82.07;40.65;;;3.50;99.90;;;;;;5046047;28;20200;-75
2021/12/09 08:16:40;;;;;;;103.60;42.33;;;3.60;99.90;;;;;;5052440;28;20237;-75
2021/12/09 08:19:08;;;;;;;86.55;43.63;;;3.50;99.90;;;;;;5052080;28;20640;-77
2021/12/09 08:21:37;;;;;;;95.25;41.28;;;3.60;99.90;;;;;;5052736;28;20326;-77
2021/12/09 08:24:05;;;;;;;91.30;40.75;;;3.60;99.90;;;;;;5044107;28;20262;-75
2021/12/09 08:26:32;;;;;;;90.38;42.88;;;3.60;99.90;;;;;;5040035;28;20199;-75
2021/12/09 08:29:00;;;;;;;107.13;42.97;;;3.70;99.90;;;;;;5040697;28;20761;-76
2021/12/09 08:31:29;;;;;;;91.95;41.00;;;3.60;99.90;;;;;;5038112;28;20222;-76
2021/12/09 08:33:58;;;;;;;112.07;44.10;;;3.60;99.90;;;;;;5053912;28;20252;-77
2021/12/09 08:36:25;;;;;;;92.43;43.13;;;3.50;99.90;;;;;;5050776;28;20219;-76
2021/12/09 08:38:52;;;;;;;94.60;37.42;;;3.60;99.90;;;;;;5052866;28;20190;-75
2021/12/09 08:41:19;;;;;;;104.30;44.55;;;3.60;99.90;;;;;;5051269;28;20306;-74
2021/12/09 08:43:47;;;;;;;98.28;42.55;;;3.60;99.90;;;;;;5052365;28;20203;-73
2021/12/09 08:46:17;;;;;;;86.97;36.60;;;3.60;99.90;;;;;;5046271;28;20207;-73
2021/12/09 08:48:46;;;;;;;94.70;38.95;;;3.60;99.90;;;;;;5059553;28;20207;-76
2021/12/09 08:51:15;;;;;;;76.15;37.80;;;3.50;99.90;;;;;;5054078;28;21573;-73
2021/12/09 08:53:42;;;;;;;88.15;39.67;;;3.50;99.90;;;;;;5045716;28;20199;-74
2021/12/09 08:56:09;;;;;;;94.03;42.45;;;3.70;99.90;;;;;;5057251;28;20199;-76
2021/12/09 08:58:36;;;;;;;100.72;41.55;;;3.60;99.90;;;;;;5056133;28;21809;-74
2021/12/09 09:01:04;;;;;;;94.88;40.58;;;3.50;99.90;;;;;;5054867;28;20311;-77
2021/12/09 09:03:32;;;;;;;99.70;40.83;;;3.40;99.90;;;;;;5054815;28;20203;-72
2021/12/09 09:06:01;;;;;;;84.25;36.78;;;3.40;99.90;;;;;;5051431;28;20246;-72
2021/12/09 09:08:35;;;;;;;104.22;43.25;;;3.50;99.90;;;;;;5048674;28;20231;-74
2021/12/09 09:11:02;;;;;;;104.50;41.40;;;3.40;99.90;;;;;;5053194;28;20302;-74
2021/12/09 09:13:29;;;;;;;86.10;39.63;;;3.40;99.90;;;;;;5056225;28;20286;-76
2021/12/09 09:15:56;;;;;;;96.03;41.03;;;3.50;99.90;;;;;;5056345;28;20269;-75
2021/12/09 09:18:24;;;;;;;86.10;39.17;;;3.40;99.90;;;;;;5056249;28;20269;-75
2021/12/09 09:20:51;;;;;;;96.10;39.53;;;3.50;99.90;;;;;;5055132;28;20223;-74
2021/12/09 09:23:21;;;;;;;102.55;41.50;;;3.50;99.90;;;;;;5056106;28;20200;-74
2021/12/09 09:25:50;;;;;;;101.15;41.42;;;3.60;99.90;;;;;;5055113;28;20241;-74
2021/12/09 09:28:17;;;;;;;93.07;38.38;;;3.60;99.90;;;;;;5055313;28;20223;-74
2021/12/09 09:30:53;;;;;;;79.57;38.80;;;3.60;99.90;;;;;;5047461;28;20265;-74
2021/12/09 09:33:21;;;;;;;98.25;38.20;;;3.60;99.90;;;;;;5054480;28;20191;-74
2021/12/09 09:35:49;;;;;;;99.57;42.22;;;3.60;99.90;;;;;;5055510;28;20199;-75
2021/12/09 09:38:17;;;;;;;97.72;45.70;;;3.60;99.90;;;;;;5055099;28;20218;-74
2021/12/09 09:40:50;;;;;;;108.30;39.55;;;3.60;99.90;;;;;;5059126;28;20299;-75
2021/12/09 09:43:31;;;;;;;98.72;41.53;;;3.60;99.90;;;;;;5058269;28;20265;-74
2021/12/09 09:46:00;;;;;;;89.90;43.03;;;3.60;99.90;;;;;;5053083;28;20286;-74
2021/12/09 09:48:29;;;;;;;104.03;41.70;;;3.60;99.90;;;;;;5048324;28;20318;-73
2021/12/09 09:50:56;;;;;;;93.13;41.75;;;3.60;99.90;;;;;;5055847;28;20227;-73
2021/12/09 09:53:23;;;;;;;97.68;41.78;;;3.50;99.90;;;;;;5053567;28;20215;-74
2021/12/09 09:55:50;;;;;;;91.53;38.05;;;3.50;99.90;;;;;;5045294;28;20214;-75
2021/12/09 09:58:25;;;;;;;101.55;44.13;;;3.60;99.90;;;;;;5052672;28;20699;-75
2021/12/09 10:00:52;;;;;;;104.65;42.63;;;3.50;99.90;;;;;;5054149;28;20241;-75
2021/12/09 10:03:27;;;;;;;91.05;41.50;;;3.50;99.90;;;;;;5054740;28;20279;-75
2021/12/09 10:05:57;;;;;;;84.57;39.25;;;3.50;99.90;;;;;;5048901;28;20287;-73
2021/12/09 10:08:24;;;;;;;87.15;38.47;;;3.50;99.90;;;;;;5060286;28;20580;-76
2021/12/09 10:11:02;;;;;;;99.53;43.40;;;3.60;99.90;;;;;;5054323;28;20253;-73
2021/12/09 10:13:32;;;;;;;98.70;43.17;;;3.60;99.90;;;;;;5055361;28;20223;-73
2021/12/09 10:16:17;;;;;;;93.90;40.88;;;3.60;99.90;;;;;;5054828;28;20661;-75
2021/12/09 10:18:46;;;;;;;106.65;42.67;;;3.70;99.90;;;;;;5055777;28;20270;-73
2021/12/09 10:21:31;;;;;;;121.22;45.00;;;3.60;99.90;;;;;;5054388;28;20286;-75
2021/12/09 10:24:00;;;;;;;100.22;43.70;;;3.70;99.90;;;;;;5041793;28;20238;-76
2021/12/09 10:26:48;;;;;;;90.75;42.72;;;3.70;99.90;;;;;;5054969;28;20729;-74
2021/12/09 10:29:27;;;;;;;97.03;43.15;;;3.70;99.90;;;;;;5055943;28;20562;-74
2021/12/09 10:31:58;;;;;;;92.13;40.75;;;3.80;99.90;;;;;;5055332;28;20591;-74
2021/12/09 10:34:33;;;;;;;85.55;40.88;;;3.80;99.90;;;;;;5055122;28;20295;-74
2021/12/09 10:37:25;;;;;;;88.68;40.50;;;3.70;99.90;;;;;;5033232;28;20221;-75
2021/12/09 10:39:54;;;;;;;103.53;41.35;;;3.80;99.90;;;;;;5048091;28;20229;-75
2021/12/09 10:42:24;;;;;;;73.20;40.05;;;3.80;99.90;;;;;;5053846;28;20310;-73
2021/12/09 10:44:57;;;;;;;105.28;44.15;;;3.90;99.90;;;;;;5050154;28;20672;-74
2021/12/09 10:47:47;;;;;;;98.55;42.35;;;3.90;99.90;;;;;;5053397;28;20206;-74
2021/12/09 10:50:24;;;;;;;91.70;39.58;;;3.90;99.90;;;;;;5052901;28;20681;-74
2021/12/09 10:52:55;;;;;;;95.68;44.15;;;3.70;99.90;;;;;;5053630;28;20199;-74
2021/12/09 10:55:26;;;;;;;87.07;37.50;;;3.70;99.90;;;;;;5053496;28;20207;-74
2021/12/09 10:57:58;;;;;;;109.07;40.63;;;3.80;99.90;;;;;;5053189;28;20234;-75
2021/12/09 11:00:30;;;;;;;92.88;41.05;;;3.80;99.90;;;;;;5053416;28;20303;-74
2021/12/09 11:03:07;;;;;;;97.97;43.03;;;3.80;99.90;;;;;;5053180;28;20290;-74
2021/12/09 11:05:36;;;;;;;90.28;38.70;;;3.80;99.90;;;;;;5049373;28;20207;-74
2021/12/09 11:08:19;;;;;;;84.75;38.67;;;3.80;99.90;;;;;;5053292;28;20227;-74
2021/12/09 11:10:48;;;;;;;97.50;40.85;;;3.90;99.90;;;;;;5045170;28;20704;-75
2021/12/09 11:13:18;;;;;;;89.38;40.58;;;4.00;99.90;;;;;;5052498;28;20639;-75
2021/12/09 11:15:52;;;;;;;97.65;42.25;;;4.00;99.90;;;;;;5046484;28;20211;-75
2021/12/09 11:18:42;;;;;;;79.85;39.28;;;4.00;99.90;;;;;;5035072;28;20543;-74
2021/12/09 11:21:16;;;;;;;86.57;37.90;;;4.00;99.90;;;;;;5044165;28;20223;-75
2021/12/09 11:23:50;;;;;;;72.90;36.45;;;4.00;99.90;;;;;;5049857;28;20298;-74
2021/12/09 11:26:45;;;;;;;63.95;31.33;;;4.10;99.90;;;;;;5053608;28;20312;-74
2021/12/09 11:29:22;;;;;;;75.72;35.13;;;4.10;99.90;;;;;;5051103;28;20251;-74
2021/12/09 11:32:00;;;;;;;82.05;37.15;;;4.10;99.90;;;;;;5041229;28;20264;-74
2021/12/09 11:34:33;;;;;;;65.18;33.47;;;4.10;99.90;;;;;;5039239;28;20207;-74
2021/12/09 11:37:07;;;;;;;69.28;36.58;;;4.20;99.90;;;;;;5035614;28;20807;-75
2021/12/09 11:39:37;;;;;;;70.03;36.05;;;4.10;99.90;;;;;;5034718;28;20227;-76
2021/12/09 11:42:22;;;;;;;76.72;35.30;;;4.00;99.90;;;;;;5051503;28;20227;-75
2021/12/09 11:44:49;;;;;;;88.13;38.25;;;4.10;99.90;;;;;;5036363;28;20280;-75
2021/12/09 11:47:18;;;;;;;94.32;42.25;;;4.10;99.90;;;;;;5051296;28;20249;-74
2021/12/09 11:49:47;;;;;;;92.38;36.50;;;4.10;99.90;;;;;;5056594;28;20235;-75
2021/12/09 11:52:15;;;;;;;67.63;33.40;;;4.20;99.90;;;;;;5055208;28;20227;-75
2021/12/09 11:54:49;;;;;;;73.95;36.60;;;4.10;99.90;;;;;;5053752;28;20226;-74
2021/12/09 11:57:30;;;;;;;68.82;35.80;;;4.20;99.90;;;;;;5052160;28;20298;-76
2021/12/09 12:12:28;;;;;;;77.90;38.50;;;4.30;99.90;;;;;;5047371;28;20268;-74
2021/12/09 12:15:02;;;;;;;72.70;37.65;;;4.30;99.90;;;;;;5052560;28;20200;-75
2021/12/09 12:17:35;;;;;;;64.40;32.38;;;4.40;99.90;;;;;;5047553;28;20261;-73
2021/12/09 12:20:17;;;;;;;66.97;32.63;;;4.30;99.90;;;;;;5052153;28;20277;-76
2021/12/09 12:23:05;;;;;;;69.88;36.22;;;4.30;99.90;;;;;;5034287;28;20218;-76
2021/12/09 12:26:31;;;;;;;67.65;37.25;;;4.30;99.90;;;;;;5051394;28;20206;-76
2021/12/09 12:29:21;;;;;;;77.03;37.10;;;4.40;99.90;;;;;;5047030;28;20220;-75
2021/12/09 12:32:15;;;;;;;77.03;34.17;;;4.20;99.90;;;;;;5046764;28;20258;-75
2021/12/09 12:38:00;;;;;;;78.47;35.30;;;4.10;99.90;;;;;;5044809;28;20214;-75
2021/12/09 12:40:34;;;;;;;65.82;34.45;;;4.00;99.90;;;;;;5051466;28;20221;-74
2021/12/09 12:43:05;;;;;;;72.20;32.22;;;4.00;99.90;;;;;;5029333;28;20554;-75
2021/12/09 12:45:49;;;;;;;81.47;36.85;;;4.00;99.90;;;;;;5053180;28;20192;-76
2021/12/09 12:51:35;;;;;;;63.63;32.88;;;4.10;99.90;;;;;;5022942;28;20258;-74
2021/12/09 12:54:26;;;;;;;77.78;34.97;;;4.20;99.90;;;;;;5052574;28;20217;-75
2021/12/09 12:56:56;;;;;;;78.97;32.58;;;4.20;99.90;;;;;;5047615;28;20246;-77
2021/12/09 12:59:31;;;;;;;66.70;37.50;;;4.20;99.90;;;;;;5051941;28;20203;-75
2021/12/09 13:02:55;;;;;;;65.63;31.48;;;4.30;99.90;;;;;;5052191;28;20210;-75
2021/12/09 13:05:43;;;;;;;71.78;35.55;;;4.40;99.90;;;;;;5049789;28;20207;-74
2021/12/09 13:11:21;;;;;;;62.22;33.10;;;4.50;99.90;;;;;;5051342;28;20231;-75
2021/12/09 13:14:02;;;;;;;72.90;34.78;;;4.60;99.90;;;;;;5052413;28;20298;-72
2021/12/09 13:16:41;;;;;;;79.63;34.25;;;4.80;99.90;;;;;;5043810;28;20200;-75
2021/12/09 13:19:32;;;;;;;61.58;32.78;;;4.70;99.90;;;;;;5052591;28;20650;-75